Time;durP1;ratioP1;P1;durP2;ratioP2;P2;SDS_P1;SDS_P2;PMS_P1;PMS_P2;Temp;Humidity;BMP_temperature;BMP_pressure;BME280_temperature;BME280_humidity;BME280_pressure;Samples;Min_cycle;Max_cycle;Signal;HPM_P1;HPM_P2
2022/02/13 00:01:05;;;;;;;10.00;6.85;;;;;;;2.05;58.58;102634.56;5028541;28;20110;-74
2022/02/13 00:03:31;;;;;;;15.52;8.13;;;;;;;1.60;59.15;102601.16;5018434;28;20046;-73
2022/02/13 00:05:57;;;;;;;9.38;6.18;;;;;;;2.17;59.24;102657.81;5018420;28;20115;-73
2022/02/13 00:08:23;;;;;;;9.32;7.15;;;;;;;1.88;59.50;102612.66;5027240;28;20037;-73
2022/02/13 00:10:50;;;;;;;10.90;7.50;;;;;;;1.93;59.99;102658.69;5022018;28;20116;-75
2022/02/13 00:13:16;;;;;;;11.75;8.20;;;;;;;2.00;59.44;102660.94;5020677;28;20076;-73
2022/02/13 00:15:41;;;;;;;13.30;7.80;;;;;;;2.19;59.24;102663.13;5020294;28;22185;-74
2022/02/13 00:18:07;;;;;;;9.10;7.07;;;;;;;2.18;58.88;102659.66;5021670;28;20405;-73
2022/02/13 00:20:32;;;;;;;10.80;6.45;;;;;;;2.25;58.95;102664.47;5025579;28;20064;-74
2022/02/13 00:22:58;;;;;;;9.40;6.60;;;;;;;2.04;59.87;102669.03;5023644;28;20053;-72
2022/02/13 00:25:31;;;;;;;10.90;7.07;;;;;;;2.01;59.66;102648.06;5025773;28;20041;-73
2022/02/13 00:27:58;;;;;;;14.68;6.57;;;;;;;1.63;60.89;102664.34;5025023;28;20121;-76
2022/02/13 00:31:02;;;;;;;11.48;7.28;;;;;;;1.99;60.13;102666.88;5024488;28;20508;-73
2022/02/13 00:34:00;;;;;;;9.95;7.00;;;;;;;1.75;60.75;102651.41;5024056;28;20037;-75
2022/02/13 00:36:25;;;;;;;9.23;6.80;;;;;;;2.23;59.91;102670.34;5018987;28;20038;-75
2022/02/13 00:38:51;;;;;;;9.85;6.22;;;;;;;2.25;59.25;102653.22;5023627;28;21407;-75
2022/02/13 00:41:18;;;;;;;9.73;7.18;;;;;;;1.87;60.31;102623.81;5030545;28;20028;-74
2022/02/13 00:43:43;;;;;;;7.43;5.20;;;;;;;1.91;60.19;102658.56;5022678;28;20119;-75
2022/02/13 00:46:09;;;;;;;12.00;6.75;;;;;;;2.17;60.18;102650.06;5022534;28;20469;-76
2022/02/13 00:48:34;;;;;;;8.77;6.40;;;;;;;1.92;60.72;102652.63;5027904;28;20041;-74
2022/02/13 00:50:59;;;;;;;9.00;7.03;;;;;;;1.95;60.94;102659.72;5027322;28;20029;-75
2022/02/13 00:53:25;;;;;;;9.30;7.05;;;;;;;1.67;61.35;102656.03;5022278;28;20033;-75
2022/02/13 00:55:50;;;;;;;9.38;6.47;;;;;;;1.88;60.79;102641.16;5027054;28;20029;-74
2022/02/13 00:58:16;;;;;;;9.80;6.57;;;;;;;2.08;60.77;102636.47;5022213;28;20143;-74
2022/02/13 01:00:41;;;;;;;9.70;5.00;;;;;;;1.71;61.17;102613.19;5023428;28;20033;-74
2022/02/13 01:03:07;;;;;;;12.32;7.22;;;;;;;1.86;61.35;102639.25;5019153;28;20034;-73
2022/02/13 01:05:32;;;;;;;10.73;5.75;;;;;;;1.99;61.14;102635.81;5027409;28;20045;-73
2022/02/13 01:07:59;;;;;;;13.50;7.25;;;;;;;1.85;61.22;102630.59;5023517;28;20029;-74
2022/02/13 01:10:25;;;;;;;10.20;5.97;;;;;;;1.80;61.90;102634.53;5023968;28;20120;-74
2022/02/13 01:12:51;;;;;;;8.50;5.38;;;;;;;2.01;61.00;102629.94;5023737;28;20088;-74
2022/02/13 01:15:16;;;;;;;10.20;6.90;;;;;;;1.83;61.49;102606.28;5056694;28;20045;-75
2022/02/13 01:17:42;;;;;;;9.88;6.15;;;;;;;2.00;60.69;102584.16;5028283;28;20744;-74
2022/02/13 01:20:08;;;;;;;9.70;6.22;;;;;;;1.54;61.38;102557.59;5020545;28;20084;-73
2022/02/13 01:22:34;;;;;;;9.55;6.07;;;;;;;1.73;62.02;102623.63;5026657;28;20069;-74
2022/02/13 01:25:15;;;;;;;10.32;7.10;;;;;;;1.61;62.09;102565.00;5017417;28;20475;-74
2022/02/13 01:27:41;;;;;;;9.13;6.05;;;;;;;1.88;61.83;102604.91;5023309;28;20029;-73
2022/02/13 01:30:07;;;;;;;9.63;5.93;;;;;;;1.93;61.73;102617.28;5020660;28;20457;-75
2022/02/13 01:32:32;;;;;;;10.73;5.72;;;;;;;1.84;61.86;102614.94;5025203;28;20412;-74
2022/02/13 01:34:58;;;;;;;7.28;4.32;;;;;;;1.74;61.57;102586.63;5022747;28;20038;-74
2022/02/13 01:37:23;;;;;;;10.43;6.38;;;;;;;1.86;61.88;102603.00;5022667;28;20095;-75
2022/02/13 01:39:49;;;;;;;15.15;7.32;;;;;;;1.84;62.06;102607.16;5056892;28;20045;-74
2022/02/13 01:42:20;;;;;;;10.55;5.88;;;;;;;1.97;61.76;102596.91;5023196;28;20436;-74
2022/02/13 01:44:45;;;;;;;7.95;5.28;;;;;;;1.26;63.95;102602.19;5019860;28;20032;-75
2022/02/13 01:47:11;;;;;;;11.68;5.78;;;;;;;1.67;62.27;102568.03;5022960;28;20088;-74
2022/02/13 01:49:37;;;;;;;9.80;6.47;;;;;;;1.50;62.89;102562.44;5026078;28;20045;-74
2022/02/13 01:52:04;;;;;;;9.13;6.00;;;;;;;1.83;62.19;102587.25;5022002;28;20474;-76
2022/02/13 01:54:30;;;;;;;10.38;6.05;;;;;;;1.76;61.97;102587.63;5022896;28;20045;-73
2022/02/13 01:57:03;;;;;;;10.25;6.00;;;;;;;1.29;63.70;102601.53;5026647;28;20045;-73
2022/02/13 01:59:28;;;;;;;8.65;5.63;;;;;;;1.43;62.62;102590.50;5025994;28;20018;-73
2022/02/13 02:01:54;;;;;;;9.35;5.45;;;;;;;1.50;63.18;102594.41;5020432;28;20400;-74
2022/02/13 02:04:42;;;;;;;10.63;5.82;;;;;;;1.53;63.13;102606.69;5024508;28;20053;-73
2022/02/13 02:07:07;;;;;;;8.20;6.03;;;;;;;1.03;64.35;102591.84;4994050;28;20041;-73
2022/02/13 02:09:33;;;;;;;8.80;6.40;;;;;;;1.36;63.81;102596.00;5006070;28;20042;-73
2022/02/13 02:12:03;;;;;;;12.70;7.20;;;;;;;1.30;63.78;102602.41;5010827;28;20417;-73
2022/02/13 02:14:48;;;;;;;9.35;6.38;;;;;;;0.95;65.19;102608.47;5007789;28;20046;-74
2022/02/13 02:17:14;;;;;;;9.68;6.43;;;;;;;1.35;63.65;102604.53;5004493;28;20088;-73
2022/02/13 02:19:41;;;;;;;9.75;6.57;;;;;;;0.92;64.00;102547.13;5003035;28;20066;-73
2022/02/13 02:22:08;;;;;;;8.05;6.68;;;;;;;0.67;66.06;102571.91;5006499;28;20038;-75
2022/02/13 02:24:34;;;;;;;10.20;6.47;;;;;;;0.50;66.88;102589.63;5003412;28;22401;-73
2022/02/13 02:27:00;;;;;;;8.10;5.80;;;;;;;0.69;66.01;102591.03;4996326;28;20030;-74
2022/02/13 02:29:26;;;;;;;9.32;6.85;;;;;;;0.45;66.92;102595.25;5003507;28;20379;-73
2022/02/13 02:31:51;;;;;;;11.02;7.45;;;;;;;0.07;68.50;102598.34;4998137;28;20046;-73
2022/02/13 02:34:17;;;;;;;16.27;7.18;;;;;;;0.41;67.44;102587.25;5004104;28;20042;-74
2022/02/13 02:36:43;;;;;;;10.32;7.65;;;;;;;0.80;65.56;102556.56;5005913;28;20390;-73
2022/02/13 02:39:08;;;;;;;9.93;6.82;;;;;;;1.01;65.32;102599.50;5002724;28;20038;-75
2022/02/13 02:41:33;;;;;;;9.90;6.32;;;;;;;0.67;65.28;102597.75;5022325;28;20033;-74
2022/02/13 02:43:59;;;;;;;13.32;7.10;;;;;;;0.32;67.75;102601.13;5026435;28;20411;-73
2022/02/13 02:46:25;;;;;;;7.60;5.32;;;;;;;0.02;66.68;102551.53;5009019;28;20466;-72
2022/02/13 02:48:52;;;;;;;9.68;5.13;;;;;;;0.57;66.25;102583.25;4997884;28;20034;-74
2022/02/13 02:51:18;;;;;;;10.30;6.25;;;;;;;0.63;65.37;102563.94;5000296;28;20050;-74
2022/02/13 02:53:43;;;;;;;10.10;6.20;;;;;;;0.52;66.17;102589.75;5001868;28;20934;-73
2022/02/13 02:56:10;;;;;;;11.27;6.70;;;;;;;-0.10;66.60;102564.38;5008417;28;20486;-73
2022/02/13 02:58:46;;;;;;;16.67;7.35;;;;;;;0.48;65.79;102587.72;5007125;28;20042;-73
2022/02/13 03:01:12;;;;;;;7.03;4.78;;;;;;;0.41;66.12;102597.56;5005274;28;20050;-73
2022/02/13 03:03:37;;;;;;;9.85;5.30;;;;;;;0.18;66.28;102598.38;5004017;28;20190;-75
2022/02/13 03:06:03;;;;;;;8.90;6.25;;;;;;;0.08;67.55;102598.47;5019386;28;20045;-74
2022/02/13 03:08:52;;;;;;;12.15;7.68;;;;;;;0.36;66.79;102596.31;5042937;28;20509;-73
2022/02/13 03:11:44;;;;;;;11.20;6.38;;;;;;;0.09;67.09;102594.19;5048078;28;20118;-73
2022/02/13 03:14:10;;;;;;;8.45;5.47;;;;;;;0.05;67.41;102566.34;5050853;28;20076;-73
2022/02/13 03:16:36;;;;;;;7.93;5.15;;;;;;;0.33;66.66;102602.97;5029500;28;20408;-73
2022/02/13 03:19:01;;;;;;;11.00;6.45;;;;;;;0.36;66.46;102596.31;5053573;28;20087;-73
2022/02/13 03:21:28;;;;;;;9.48;6.38;;;;;;;0.01;67.38;102588.44;5066116;28;20061;-74
2022/02/13 03:23:53;;;;;;;8.73;6.05;;;;;;;-0.03;68.13;102583.81;5056177;28;20028;-75
2022/02/13 03:26:23;;;;;;;9.75;6.15;;;;;;;-0.45;68.47;102584.81;5046971;28;20376;-74
2022/02/13 03:28:48;;;;;;;8.93;6.15;;;;;;;-0.78;70.19;102598.47;5045500;28;20037;-72
2022/02/13 03:31:14;;;;;;;9.57;5.45;;;;;;;-1.06;70.49;102545.59;5034801;28;20037;-73
2022/02/13 03:33:41;;;;;;;11.07;4.57;;;;;;;-0.77;70.07;102578.00;5016775;28;20547;-73
2022/02/13 03:36:07;;;;;;;7.82;5.90;;;;;;;-0.73;69.58;102571.41;5046262;28;20037;-73
2022/02/13 03:38:33;;;;;;;9.07;6.28;;;;;;;-0.38;69.39;102576.78;5048918;28;20483;-72
2022/02/13 03:40:59;;;;;;;10.63;7.30;;;;;;;-0.88;71.55;102589.13;5044368;28;20029;-73
2022/02/13 03:43:24;;;;;;;9.18;7.05;;;;;;;-0.88;71.50;102589.13;5049810;28;20048;-73
2022/02/13 03:45:50;;;;;;;18.02;5.53;;;;;;;-1.07;71.90;102581.56;5046851;28;20477;-73
2022/02/13 03:48:15;;;;;;;9.15;6.18;;;;;;;-0.89;71.06;102579.56;5042781;28;20465;-76
2022/02/13 03:50:41;;;;;;;8.88;5.45;;;;;;;-0.81;71.10;102587.94;5045634;28;20377;-73
2022/02/13 03:53:06;;;;;;;15.52;7.32;;;;;;;-0.81;71.13;102590.50;5059357;28;20385;-75
2022/02/13 03:55:36;;;;;;;9.50;6.43;;;;;;;-0.96;70.30;102539.53;5029008;28;20039;-73
2022/02/13 03:58:02;;;;;;;9.25;6.63;;;;;;;-1.15;71.14;102550.03;5021674;28;20493;-74
2022/02/13 04:00:29;;;;;;;13.45;4.93;;;;;;;-1.21;71.92;102575.28;5028818;28;20056;-75
2022/02/13 04:02:55;;;;;;;12.82;5.25;;;;;;;-1.03;71.45;102580.13;5059091;28;20049;-74
2022/02/13 04:05:24;;;;;;;9.07;6.50;;;;;;;-0.92;71.20;102581.91;5024333;28;20409;-74
2022/02/13 04:07:50;;;;;;;7.60;6.32;;;;;;;-0.85;71.00;102577.34;5022273;28;20611;-74
2022/02/13 04:10:15;;;;;;;8.07;4.85;;;;;;;-1.07;71.24;102592.75;5027071;28;21649;-74
2022/02/13 04:12:41;;;;;;;9.70;5.97;;;;;;;-1.29;71.25;102559.19;5030832;28;20045;-73
2022/02/13 04:15:08;;;;;;;9.63;5.43;;;;;;;-1.14;71.92;102586.97;5028040;28;20107;-74
2022/02/13 04:17:33;;;;;;;10.48;6.22;;;;;;;-1.03;70.99;102574.97;5027423;28;20037;-74
2022/02/13 04:19:59;;;;;;;7.68;5.25;;;;;;;-0.99;70.48;102554.72;5027130;28;20112;-75
2022/02/13 04:22:31;;;;;;;8.45;5.82;;;;;;;-1.17;71.39;102582.47;5030763;28;20049;-74
2022/02/13 04:24:57;;;;;;;11.52;6.18;;;;;;;-1.25;71.67;102562.00;5025385;28;20385;-74
2022/02/13 04:27:23;;;;;;;11.95;5.65;;;;;;;-0.99;71.19;102589.91;5032877;28;20265;-74
2022/02/13 04:29:49;;;;;;;26.00;6.43;;;;;;;-1.00;71.26;102582.97;5015416;28;20037;-75
2022/02/13 04:32:15;;;;;;;11.73;6.35;;;;;;;-1.02;71.40;102581.94;5025380;28;20037;-75
2022/02/13 04:34:41;;;;;;;11.45;7.32;;;;;;;-0.94;71.08;102588.59;5024874;28;20053;-75
2022/02/13 04:37:06;;;;;;;10.23;6.28;;;;;;;-0.85;70.63;102579.03;5021632;28;20037;-77
2022/02/13 04:39:32;;;;;;;13.57;6.68;;;;;;;-1.23;71.77;102591.38;5017684;28;20100;-75
2022/02/13 04:41:57;;;;;;;12.13;6.85;;;;;;;-1.02;71.10;102575.09;5026175;28;20033;-74
2022/02/13 04:44:23;;;;;;;11.73;6.20;;;;;;;-1.38;71.88;102575.53;5026674;28;20032;-75
2022/02/13 04:46:48;;;;;;;11.82;6.43;;;;;;;-1.28;72.05;102579.00;5019536;28;20069;-74
2022/02/13 04:49:14;;;;;;;11.82;6.00;;;;;;;-0.86;70.77;102583.31;5026459;28;20133;-74
2022/02/13 04:51:39;;;;;;;14.00;7.18;;;;;;;-0.98;70.85;102589.16;5025802;28;20362;-76
2022/02/13 04:54:05;;;;;;;8.43;5.60;;;;;;;-1.22;71.28;102575.13;5027565;28;20362;-73
2022/02/13 04:56:30;;;;;;;7.40;4.88;;;;;;;-1.27;71.60;102577.31;5023618;28;20029;-72
2022/02/13 04:58:56;;;;;;;8.38;4.00;;;;;;;-1.25;71.66;102582.63;5024708;28;20033;-73
2022/02/13 05:01:21;;;;;;;9.27;5.65;;;;;;;-1.04;70.77;102566.34;5019445;28;20061;-72
2022/02/13 05:05:31;;;;;;;8.65;6.28;;;;;;;-0.88;70.36;102587.44;5138966;27;20528;-74
2022/02/13 05:07:57;;;;;;;9.75;5.68;;;;;;;-1.07;70.94;102587.59;5085229;28;20048;-74
2022/02/13 05:10:22;;;;;;;7.45;5.05;;;;;;;-1.28;71.94;102573.84;5076320;28;20514;-75
2022/02/13 05:12:49;;;;;;;10.60;6.47;;;;;;;-1.16;71.35;102580.81;5089139;28;20066;-73
2022/02/13 05:15:15;;;;;;;11.57;6.00;;;;;;;-1.25;71.78;102585.19;5095531;28;20032;-73
2022/02/13 05:17:40;;;;;;;9.48;5.53;;;;;;;-1.41;71.67;102560.72;5101068;28;20456;-73
2022/02/13 05:20:06;;;;;;;10.23;6.97;;;;;;;-1.39;72.30;102584.94;5089621;28;20116;-72
2022/02/13 05:22:32;;;;;;;9.00;6.60;;;;;;;-1.28;72.24;102586.72;5093573;28;20039;-72
2022/02/13 05:24:58;;;;;;;8.40;6.20;;;;;;;-1.22;71.79;102601.78;5096317;28;20051;-72
2022/02/13 05:27:24;;;;;;;11.43;8.40;;;;;;;-1.25;72.11;102596.38;5086895;28;20512;-73
2022/02/13 05:29:50;;;;;;;14.38;6.05;;;;;;;-1.30;71.09;102559.06;5094984;28;20032;-72
2022/02/13 05:32:15;;;;;;;10.45;5.28;;;;;;;-1.33;71.60;102593.19;5081508;28;20071;-73
2022/02/13 05:34:41;;;;;;;10.68;6.25;;;;;;;-1.23;72.00;102604.25;5091530;28;20072;-73
2022/02/13 05:37:21;;;;;;;11.93;6.45;;;;;;;-1.42;71.74;102606.97;5091464;28;20503;-72
2022/02/13 05:39:47;;;;;;;12.20;6.57;;;;;;;-1.24;71.57;102598.22;5084869;28;20082;-73
2022/02/13 05:42:12;;;;;;;10.57;6.32;;;;;;;-1.35;71.21;102596.41;5090255;28;20496;-73
2022/02/13 05:44:39;;;;;;;15.32;6.78;;;;;;;-1.21;71.29;102602.72;5086265;28;20036;-73
2022/02/13 05:47:05;;;;;;;7.63;5.55;;;;;;;-1.27;71.37;102600.50;5089582;28;20112;-73
2022/02/13 05:49:31;;;;;;;16.02;7.70;;;;;;;-1.26;71.54;102592.03;5085514;28;20036;-74
2022/02/13 05:51:57;;;;;;;11.57;6.93;;;;;;;-1.28;71.70;102597.03;5090640;28;20377;-73
2022/02/13 05:54:23;;;;;;;16.70;7.00;;;;;;;-1.00;70.98;102599.31;5077003;28;20047;-73
2022/02/13 05:56:49;;;;;;;10.80;6.50;;;;;;;-0.82;70.24;102602.50;5094039;28;20028;-74
2022/02/13 05:59:16;;;;;;;10.60;6.20;;;;;;;-1.15;70.64;102598.03;5081296;28;20546;-73
2022/02/13 06:01:43;;;;;;;10.82;7.05;;;;;;;-0.84;70.13;102606.63;5089414;28;20109;-74
2022/02/13 06:04:08;;;;;;;10.15;7.25;;;;;;;-1.16;70.49;102580.81;5084293;28;20083;-73
2022/02/13 06:06:34;;;;;;;9.98;5.68;;;;;;;-1.15;70.58;102600.63;5086412;28;20060;-74
2022/02/13 06:08:59;;;;;;;16.67;8.68;;;;;;;-0.83;70.07;102599.78;5081973;28;20479;-74
2022/02/13 06:11:25;;;;;;;9.32;6.90;;;;;;;-0.96;69.80;102587.56;5098401;28;20107;-74
2022/02/13 06:13:50;;;;;;;10.38;6.55;;;;;;;-0.60;69.66;102605.13;5094360;28;20067;-74
2022/02/13 06:16:15;;;;;;;11.30;7.68;;;;;;;-1.23;70.40;102581.97;5076520;28;20049;-74
2022/02/13 06:18:41;;;;;;;14.15;9.38;;;;;;;-0.83;69.78;102589.50;5071601;28;20495;-74
2022/02/13 06:21:06;;;;;;;11.15;6.28;;;;;;;-1.03;69.88;102572.38;5080511;28;20547;-73
2022/02/13 06:23:32;;;;;;;11.73;7.63;;;;;;;-0.67;69.56;102610.56;5077313;28;20035;-72
2022/02/13 06:25:58;;;;;;;8.20;6.03;;;;;;;-0.61;69.35;102610.16;5080749;28;20040;-72
2022/02/13 06:28:24;;;;;;;12.05;7.00;;;;;;;-0.77;70.06;102602.84;5079684;28;20523;-73
2022/02/13 06:30:50;;;;;;;12.50;6.72;;;;;;;-0.60;69.34;102581.94;5075286;28;20047;-75
2022/02/13 06:33:16;;;;;;;11.75;8.02;;;;;;;-0.79;69.76;102610.47;5082134;28;20040;-75
2022/02/13 06:35:41;;;;;;;11.05;7.53;;;;;;;-0.72;70.57;102610.19;5068845;28;20032;-75
2022/02/13 06:38:14;;;;;;;14.40;7.40;;;;;;;-0.41;69.39;102588.56;5074906;28;20039;-75
2022/02/13 06:40:41;;;;;;;13.15;8.05;;;;;;;-0.52;69.24;102573.13;5076029;28;20051;-74
2022/02/13 06:43:08;;;;;;;16.52;9.63;;;;;;;-0.31;69.42;102614.28;5070223;28;20074;-74
2022/02/13 06:45:34;;;;;;;13.10;8.80;;;;;;;0.10;68.75;102601.19;5076933;28;20032;-74
2022/02/13 06:48:01;;;;;;;13.27;8.57;;;;;;;-0.12;68.97;102609.78;5069503;28;20104;-74
2022/02/13 06:51:07;;;;;;;14.93;7.82;;;;;;;-0.20;69.35;102616.03;5070656;28;20028;-75
2022/02/13 06:53:32;;;;;;;15.32;8.98;;;;;;;-0.42;69.76;102613.44;5076692;28;20451;-74
2022/02/13 06:55:58;;;;;;;12.80;8.75;;;;;;;-0.17;69.79;102607.66;5078562;28;20043;-74
2022/02/13 06:58:25;;;;;;;11.10;6.30;;;;;;;-0.18;70.08;102611.03;5085539;28;20020;-74
2022/02/13 07:00:50;;;;;;;13.73;9.07;;;;;;;-0.30;69.63;102574.84;5072997;28;20507;-74
2022/02/13 07:03:16;;;;;;;13.85;8.38;;;;;;;0.04;69.58;102601.56;5084147;28;20056;-74
2022/02/13 07:05:41;;;;;;;13.40;9.02;;;;;;;0.65;67.96;102607.97;5071373;28;20027;-74
2022/02/13 07:08:07;;;;;;;14.57;9.43;;;;;;;0.25;68.92;102607.50;5075214;28;20047;-74
2022/02/13 07:10:33;;;;;;;18.25;9.20;;;;;;;0.38;69.53;102604.19;5066360;28;20047;-74
2022/02/13 07:12:58;;;;;;;14.25;8.88;;;;;;;0.38;69.25;102602.50;5072405;28;20052;-74
2022/02/13 07:15:24;;;;;;;15.23;10.60;;;;;;;-0.03;70.25;102604.47;5076926;28;20052;-74
2022/02/13 07:17:49;;;;;;;16.58;10.90;;;;;;;0.25;69.29;102592.00;5084790;28;20130;-74
2022/02/13 07:20:15;;;;;;;12.15;9.57;;;;;;;0.16;69.76;102594.81;5068385;28;20425;-75
2022/02/13 07:22:41;;;;;;;17.55;10.25;;;;;;;0.61;69.49;102609.44;5084875;28;20056;-74
2022/02/13 07:25:07;;;;;;;14.02;10.95;;;;;;;0.27;69.92;102587.88;5071234;28;20901;-75
2022/02/13 07:27:36;;;;;;;19.48;9.80;;;;;;;0.65;69.03;102604.50;5071413;28;20135;-74
2022/02/13 07:30:09;;;;;;;12.80;10.00;;;;;;;0.71;68.91;102581.72;5084710;28;20032;-74
2022/02/13 07:32:35;;;;;;;13.70;9.40;;;;;;;0.88;68.58;102598.47;5073899;28;20028;-74
2022/02/13 07:35:00;;;;;;;13.98;10.38;;;;;;;0.66;69.26;102583.06;5077920;28;20040;-74
2022/02/13 07:37:29;;;;;;;22.00;11.90;;;;;;;0.45;68.53;102535.84;5069452;28;20059;-74
2022/02/13 07:39:54;;;;;;;18.90;11.98;;;;;;;0.62;69.01;102545.75;5070054;28;20471;-74
2022/02/13 07:42:20;;;;;;;14.10;10.15;;;;;;;1.11;68.23;102582.06;5075619;28;20055;-74
2022/02/13 07:44:48;;;;;;;12.45;9.02;;;;;;;1.33;66.64;102531.09;5075915;28;20027;-74
2022/02/13 07:47:13;;;;;;;14.18;10.77;;;;;;;0.70;68.61;102570.44;5082004;28;20093;-73
2022/02/13 07:49:52;;;;;;;15.35;10.30;;;;;;;0.78;69.62;102573.63;5080451;28;20484;-76
2022/02/13 07:52:19;;;;;;;16.67;12.38;;;;;;;0.74;69.03;102532.84;5080505;28;20062;-74
2022/02/13 07:54:45;;;;;;;18.17;10.38;;;;;;;1.38;67.65;102559.88;5072669;28;20036;-73
2022/02/13 08:00:43;;;;;;;17.70;12.30;;;;;;;1.03;68.43;102529.78;5072281;28;20062;-73
2022/02/13 08:03:08;;;;;;;15.35;11.23;;;;;;;1.48;67.90;102552.91;5071510;28;20028;-73
2022/02/13 08:05:38;;;;;;;14.10;11.23;;;;;;;1.68;66.79;102535.31;5081255;28;20136;-70
2022/02/13 08:08:04;;;;;;;14.73;10.63;;;;;;;2.06;65.37;102522.44;5072693;28;20056;-71
2022/02/13 08:10:31;;;;;;;16.52;11.93;;;;;;;1.96;66.83;102565.72;5073594;28;20139;-72
2022/02/13 08:12:57;;;;;;;16.52;12.65;;;;;;;1.35;67.44;102533.81;5052440;28;20400;-73
2022/02/13 08:15:23;;;;;;;19.60;12.88;;;;;;;1.97;66.54;102533.88;5082308;28;20043;-73
2022/02/13 08:18:12;;;;;;;18.77;13.82;;;;;;;2.10;66.16;102527.03;5074311;28;20020;-73
2022/02/13 08:21:13;;;;;;;15.07;11.90;;;;;;;2.77;64.68;102554.81;5078159;28;20024;-74
2022/02/13 08:23:40;;;;;;;16.88;11.25;;;;;;;3.01;63.75;102551.22;5057255;28;20041;-73
2022/02/13 08:26:05;;;;;;;15.55;9.88;;;;;;;3.26;63.21;102555.41;5055699;28;20032;-73
2022/02/13 08:31:52;;;;;;;18.52;11.13;;;;;;;3.49;62.02;102544.78;5062828;28;20085;-73
2022/02/13 08:34:18;;;;;;;18.88;10.93;;;;;;;3.46;62.52;102541.97;5079211;28;20437;-73
2022/02/13 08:36:43;;;;;;;15.98;11.40;;;;;;;3.53;62.17;102549.34;5079754;28;20043;-74
2022/02/13 08:39:09;;;;;;;14.35;10.52;;;;;;;3.38;62.19;102535.44;5070662;28;20040;-73
2022/02/13 08:41:35;;;;;;;18.02;12.70;;;;;;;3.34;62.89;102523.06;5067038;28;20038;-73
2022/02/13 08:44:06;;;;;;;15.02;11.20;;;;;;;2.94;63.53;102538.66;5074267;28;20040;-73
2022/02/13 08:46:34;;;;;;;13.95;9.60;;;;;;;2.65;65.04;102541.94;5075015;28;20053;-73
2022/02/13 08:52:11;;;;;;;18.92;11.02;;;;;;;2.64;65.42;102522.84;5076713;28;20038;-73
2022/02/13 08:54:36;;;;;;;15.75;10.88;;;;;;;2.68;65.64;102543.00;5072832;28;20048;-74
2022/02/13 08:57:02;;;;;;;16.05;10.93;;;;;;;2.64;65.66;102532.34;5069532;28;20129;-73
2022/02/13 08:59:28;;;;;;;11.48;10.10;;;;;;;3.32;63.84;102519.47;5071901;28;20049;-71
2022/02/13 09:01:55;;;;;;;16.40;10.57;;;;;;;3.21;63.70;102517.88;5073411;28;20051;-75
2022/02/13 09:04:20;;;;;;;14.32;9.43;;;;;;;3.20;64.57;102510.91;5076554;28;20053;-74
2022/02/13 09:07:13;;;;;;;19.63;10.70;;;;;;;3.48;63.53;102521.34;5077120;28;20102;-73
2022/02/13 09:09:43;;;;;;;13.55;10.02;;;;;;;2.81;64.73;102524.00;5073764;28;20545;-73
2022/02/13 09:12:09;;;;;;;17.85;10.95;;;;;;;2.94;65.57;102516.19;5068636;28;20037;-74
2022/02/13 09:14:34;;;;;;;16.20;11.32;;;;;;;3.40;63.86;102519.97;5072825;28;20115;-74
2022/02/13 09:17:00;;;;;;;19.13;12.40;;;;;;;3.66;63.20;102506.03;5057482;28;20082;-73
2022/02/13 09:19:25;;;;;;;16.55;10.13;;;;;;;3.32;63.47;102512.56;5080942;28;20051;-72
2022/02/13 09:21:53;;;;;;;15.20;11.05;;;;;;;3.42;63.96;102516.66;5081642;28;20040;-73
2022/02/13 09:24:20;;;;;;;21.65;14.05;;;;;;;4.07;61.74;102512.81;5066943;28;20059;-73
2022/02/13 09:26:46;;;;;;;17.73;11.75;;;;;;;4.64;60.29;102492.00;5067512;28;20036;-73
2022/02/13 09:29:11;;;;;;;16.73;10.90;;;;;;;4.85;58.87;102497.53;5067411;28;20029;-73
2022/02/13 09:31:38;;;;;;;14.70;10.07;;;;;;;4.43;59.38;102509.81;5072297;28;20496;-73
2022/02/13 09:34:04;;;;;;;19.08;9.43;;;;;;;4.36;60.04;102502.47;5080104;28;20121;-74
2022/02/13 09:36:29;;;;;;;27.92;12.07;;;;;;;5.06;58.66;102494.34;5065628;28;20071;-74
2022/02/13 09:38:55;;;;;;;16.20;10.65;;;;;;;4.37;59.24;102498.16;5071309;28;20024;-74
2022/02/13 09:41:21;;;;;;;18.33;11.77;;;;;;;4.57;59.31;102487.25;5066736;28;20032;-72
2022/02/13 09:43:48;;;;;;;18.48;11.57;;;;;;;4.70;57.90;102470.63;5065389;28;20040;-73
2022/02/13 09:46:15;;;;;;;15.52;11.90;;;;;;;4.71;58.36;102487.16;5064566;28;20136;-72
2022/02/13 09:48:41;;;;;;;17.98;10.98;;;;;;;4.16;60.24;102475.31;5066478;28;20051;-74
2022/02/13 09:51:07;;;;;;;16.95;10.48;;;;;;;4.59;59.11;102456.16;5072005;28;20067;-73
2022/02/13 09:53:35;;;;;;;13.10;9.98;;;;;;;5.17;57.56;102461.97;5074319;28;20492;-73
2022/02/13 09:56:02;;;;;;;12.65;10.07;;;;;;;5.19;57.29;102467.28;5088711;28;20434;-73
2022/02/13 09:58:29;;;;;;;18.55;11.48;;;;;;;4.51;58.71;102463.47;5095817;28;20043;-73
2022/02/13 10:01:01;;;;;;;17.73;10.00;;;;;;;4.21;58.80;102449.59;5080012;28;20480;-73
2022/02/13 10:03:29;;;;;;;18.00;11.32;;;;;;;4.73;58.05;102451.69;5066071;28;20045;-73
2022/02/13 10:06:00;;;;;;;17.02;10.38;;;;;;;5.19;56.60;102447.34;5057025;28;20113;-73
2022/02/13 10:08:30;;;;;;;18.33;10.70;;;;;;;5.71;56.08;102449.25;5073988;28;20079;-73
2022/02/13 10:11:29;;;;;;;15.90;11.57;;;;;;;5.15;56.25;102450.63;5085562;28;20032;-73
2022/02/13 10:14:05;;;;;;;18.98;10.70;;;;;;;5.00;57.21;102436.75;5078947;28;20036;-73
2022/02/13 10:16:36;;;;;;;12.93;9.90;;;;;;;4.85;56.98;102435.09;5066947;28;20415;-73
2022/02/13 10:19:08;;;;;;;20.98;11.32;;;;;;;5.56;55.66;102425.03;5082281;28;20097;-73
2022/02/13 10:21:39;;;;;;;14.65;9.43;;;;;;;5.39;55.92;102424.13;5089757;28;20056;-73
2022/02/13 10:24:38;;;;;;;15.38;8.88;;;;;;;5.07;57.35;102416.34;5066732;28;20060;-74
2022/02/13 10:27:12;;;;;;;18.15;10.98;;;;;;;5.82;54.94;102406.44;5082281;28;20205;-73
2022/02/13 10:29:44;;;;;;;19.05;9.23;;;;;;;5.76;53.37;102405.22;5083876;28;20032;-73
2022/02/13 10:32:29;;;;;;;13.53;10.50;;;;;;;6.10;53.83;102405.28;5085719;28;20044;-73
2022/02/13 10:35:12;;;;;;;11.93;8.10;;;;;;;6.54;52.42;102397.03;5090087;28;20039;-73
2022/02/13 10:37:51;;;;;;;14.77;9.63;;;;;;;6.37;52.83;102378.78;5091871;28;20506;-73
2022/02/13 10:40:22;;;;;;;16.05;10.35;;;;;;;6.63;51.82;102378.34;5090723;28;20136;-73
2022/02/13 10:42:49;;;;;;;12.90;9.18;;;;;;;6.50;51.08;102365.53;5089466;28;20044;-73
2022/02/13 10:45:15;;;;;;;11.45;8.10;;;;;;;6.56;50.11;102365.81;5091007;28;20108;-73
2022/02/13 10:47:43;;;;;;;12.90;7.60;;;;;;;6.69;50.49;102372.50;5091675;28;20526;-73
2022/02/13 10:50:09;;;;;;;13.50;9.23;;;;;;;7.08;50.26;102364.75;5092440;28;20048;-73
2022/02/13 10:52:35;;;;;;;16.23;9.02;;;;;;;6.44;50.99;102362.59;5092962;28;20046;-72
2022/02/13 10:55:03;;;;;;;11.75;7.07;;;;;;;7.16;48.97;102339.88;5088603;28;20472;-72
2022/02/13 10:57:37;;;;;;;10.90;6.82;;;;;;;7.57;47.36;102339.09;5092572;28;20108;-72
2022/02/13 11:00:04;;;;;;;10.65;7.00;;;;;;;7.35;47.62;102344.19;5078066;28;20048;-72
2022/02/13 11:02:32;;;;;;;9.30;6.38;;;;;;;8.10;46.72;102333.47;5081038;28;20019;-72
2022/02/13 11:04:58;;;;;;;11.30;6.35;;;;;;;7.97;45.73;102337.31;5081414;28;20548;-73
2022/02/13 11:07:24;;;;;;;10.55;7.18;;;;;;;7.87;45.60;102312.50;5090053;28;20125;-73
2022/02/13 11:09:51;;;;;;;10.63;6.45;;;;;;;6.24;48.42;102339.09;5078647;28;20071;-73
2022/02/13 11:15:42;;;;;;;11.25;6.05;;;;;;;7.46;46.40;102313.34;5083632;28;20117;-71
2022/02/13 11:18:09;;;;;;;10.13;5.68;;;;;;;7.21;47.07;102316.59;5094298;28;20054;-70
2022/02/13 11:20:35;;;;;;;14.30;7.82;;;;;;;6.84;47.60;102305.41;5095157;28;20028;-71
2022/02/13 11:23:49;;;;;;;11.10;6.45;;;;;;;7.13;44.98;102311.94;5091253;28;20047;-70
2022/02/13 11:30:15;;;;;;;10.68;7.03;;;;;;;6.57;46.39;102304.13;5011048;28;20123;-72
2022/02/13 11:33:23;;;;;;;10.20;6.68;;;;;;;7.20;43.96;102292.22;4989257;28;20050;-71
2022/02/13 11:36:00;;;;;;;14.52;7.82;;;;;;;7.50;43.99;102291.78;4987318;28;20455;-71
2022/02/13 11:38:40;;;;;;;9.73;7.25;;;;;;;7.79;43.39;102282.53;4988107;28;20034;-71
2022/02/13 11:41:08;;;;;;;9.73;5.60;;;;;;;7.59;43.24;102279.09;5007942;28;20156;-71
2022/02/13 11:43:45;;;;;;;11.82;6.82;;;;;;;7.07;44.24;102277.75;5008366;28;20481;-71
2022/02/13 11:46:12;;;;;;;7.63;5.07;;;;;;;7.53;43.89;102265.78;5005050;28;20045;-71
2022/02/13 11:48:43;;;;;;;11.85;5.78;;;;;;;8.11;42.41;102262.94;4999568;28;20341;-72